createdAt,value
2022-08-25T00:00:02.293Z,4.7
2022-08-25T00:05:01.743Z,4.0
2022-08-25T00:10:00.360Z,5.8
2022-08-25T00:15:00.305Z,3.2
2022-08-25T00:20:00.374Z,3.6
2022-08-25T00:25:00.302Z,3.6
2022-08-25T00:30:00.423Z,5.4
2022-08-25T00:35:00.351Z,4.7
2022-08-25T00:40:00.636Z,3.6
2022-08-25T00:45:00.779Z,5.0
2022-08-25T00:50:01.023Z,4.0
2022-08-25T00:55:08.624Z,3.6
2022-08-25T01:00:00.342Z,5.8
2022-08-25T01:05:00.418Z,6.8
2022-08-25T01:10:00.315Z,2.9
2022-08-25T01:15:00.347Z,5.8
2022-08-25T01:20:00.347Z,5.8
2022-08-25T01:25:00.295Z,6.1
2022-08-25T01:30:00.353Z,5.8
2022-08-25T01:35:00.323Z,5.4
2022-08-25T01:40:00.594Z,5.0
2022-08-25T01:45:00.324Z,4.7
2022-08-25T01:50:00.375Z,5.4
2022-08-25T01:55:00.284Z,5.0
2022-08-25T02:00:00.418Z,2.9
2022-08-25T02:05:00.431Z,4.0
2022-08-25T02:10:03.745Z,1.4
2022-08-25T02:15:00.504Z,2.5
2022-08-25T02:20:00.356Z,2.2
2022-08-25T02:25:00.288Z,3.6
2022-08-25T02:30:00.367Z,4.0
2022-08-25T02:35:00.310Z,3.6
2022-08-25T02:40:00.598Z,3.6
2022-08-25T02:45:00.354Z,4.3
2022-08-25T02:50:00.349Z,2.9
2022-08-25T02:55:00.282Z,7.2
2022-08-25T03:00:00.373Z,4.7
2022-08-25T03:05:00.630Z,5.0
2022-08-25T03:10:00.332Z,6.8
2022-08-25T03:15:01.070Z,4.0
2022-08-25T03:20:00.356Z,4.0
2022-08-25T03:25:00.349Z,4.0
2022-08-25T03:30:00.416Z,8.3
2022-08-25T03:35:00.356Z,6.8
2022-08-25T03:40:00.600Z,8.3
2022-08-25T03:45:00.329Z,5.4
2022-08-25T03:50:00.406Z,8.6
2022-08-25T03:55:00.339Z,7.9
2022-08-25T04:00:00.370Z,6.1
2022-08-25T04:05:00.405Z,6.1
2022-08-25T04:10:00.402Z,8.6
2022-08-25T04:15:00.375Z,6.8
2022-08-25T04:20:00.438Z,6.5
2022-08-25T04:25:00.344Z,11.2
2022-08-25T04:30:00.449Z,6.1
2022-08-25T04:35:00.306Z,6.1
2022-08-25T04:40:00.757Z,8.6
2022-08-25T04:45:00.415Z,9.0
2022-08-25T04:50:00.420Z,7.2
2022-08-25T04:55:00.379Z,8.6
2022-08-25T05:00:00.403Z,6.5
2022-08-25T05:05:00.314Z,6.5
2022-08-25T05:10:00.358Z,7.9
2022-08-25T05:15:00.325Z,5.8
2022-08-25T05:20:00.352Z,8.3
2022-08-25T05:25:00.314Z,4.3
2022-08-25T05:30:00.403Z,10.4
2022-08-25T05:35:00.350Z,6.5
2022-08-25T05:40:00.608Z,6.1
2022-08-25T05:45:00.308Z,3.6
2022-08-25T05:50:00.366Z,8.6
2022-08-25T05:55:00.362Z,11.2
2022-08-25T06:00:00.355Z,7.9
2022-08-25T06:05:00.293Z,11.2
2022-08-25T06:10:00.368Z,10.4
2022-08-25T06:15:00.365Z,13.0
2022-08-25T06:20:00.895Z,11.9
2022-08-25T06:25:02.881Z,12.6
2022-08-25T06:30:08.171Z,10.8
2022-08-25T06:35:00.306Z,10.1
2022-08-25T06:40:00.646Z,12.6
2022-08-25T06:45:00.320Z,4.7
2022-08-25T06:50:00.442Z,11.9
2022-08-25T06:55:00.346Z,5.8
2022-08-25T07:00:00.448Z,7.9
2022-08-25T07:05:00.330Z,3.6
2022-08-25T07:10:00.387Z,5.8
2022-08-25T07:15:20.635Z,8.6
2022-08-25T07:20:00.736Z,6.1
2022-08-25T07:25:00.371Z,6.5
2022-08-25T07:30:01.265Z,8.6
2022-08-25T07:35:01.628Z,4.0
2022-08-25T07:40:00.656Z,4.0
2022-08-25T07:45:00.381Z,8.3
2022-08-25T07:50:00.368Z,7.2
2022-08-25T07:55:00.339Z,10.1
2022-08-25T08:00:00.431Z,5.8
2022-08-25T08:05:01.625Z,6.8
2022-08-25T08:10:42.671Z,7.9
2022-08-25T08:15:00.457Z,13.7
2022-08-25T08:20:00.428Z,12.6
2022-08-25T08:25:00.324Z,10.1
2022-08-25T08:30:00.411Z,5.8
2022-08-25T08:35:00.336Z,10.8
2022-08-25T08:40:03.745Z,9.0
2022-08-25T08:45:02.933Z,10.1
2022-08-25T08:50:00.543Z,9.7
2022-08-25T08:55:00.368Z,6.5
2022-08-25T09:00:00.408Z,9.7
2022-08-25T09:05:00.656Z,7.2
2022-08-25T09:10:00.373Z,9.0
2022-08-25T09:15:00.361Z,9.7
2022-08-25T09:20:00.372Z,9.4
2022-08-25T09:25:00.343Z,4.0
2022-08-25T09:30:00.485Z,9.4
2022-08-25T09:35:00.349Z,7.2
2022-08-25T09:40:00.757Z,10.4
2022-08-25T09:45:00.371Z,7.2
2022-08-25T09:50:00.471Z,10.4
2022-08-25T09:55:00.375Z,5.0
2022-08-25T10:00:01.789Z,13.3
2022-08-25T10:05:00.448Z,6.8
2022-08-25T10:10:00.875Z,9.0
2022-08-25T10:15:00.372Z,8.6
2022-08-25T10:20:03.835Z,8.3
2022-08-25T10:25:00.319Z,7.9
2022-08-25T10:30:03.541Z,9.4
2022-08-25T10:35:00.474Z,10.1
2022-08-25T10:40:00.564Z,7.6
2022-08-25T10:45:01.314Z,5.0
2022-08-25T10:50:04.601Z,10.1
2022-08-25T10:55:00.377Z,8.3
2022-08-25T11:00:00.390Z,6.1
2022-08-25T11:05:00.608Z,6.5
2022-08-25T11:10:00.347Z,6.5
2022-08-25T11:15:01.635Z,7.6
2022-08-25T11:20:00.429Z,4.0
2022-08-25T11:25:00.345Z,13.3
2022-08-25T11:30:00.658Z,7.2
2022-08-25T11:35:00.322Z,11.2
2022-08-25T11:40:00.669Z,4.7
2022-08-25T11:45:00.419Z,9.4
2022-08-25T11:50:00.363Z,5.4
2022-08-25T11:55:00.307Z,6.1
2022-08-25T12:00:00.411Z,16.6
2022-08-25T12:05:01.160Z,13.0
2022-08-25T12:10:00.373Z,6.1
2022-08-25T12:15:00.354Z,4.3
2022-08-25T12:20:00.376Z,11.2
2022-08-25T12:25:00.305Z,7.6
2022-08-25T12:30:00.742Z,9.7
2022-08-25T12:35:00.372Z,8.6
2022-08-25T12:40:00.618Z,9.4
2022-08-25T12:45:00.492Z,5.0
2022-08-25T12:50:00.844Z,5.8
2022-08-25T12:55:00.408Z,3.6
2022-08-25T13:00:00.620Z,3.6
2022-08-25T13:05:02.786Z,9.7
2022-08-25T13:10:00.375Z,8.3
2022-08-25T13:15:00.363Z,5.4
2022-08-25T13:20:04.576Z,3.6
2022-08-25T13:25:00.660Z,15.5
2022-08-25T13:30:04.868Z,6.1
2022-08-25T13:35:00.299Z,9.0
2022-08-25T13:40:05.396Z,10.1
2022-08-25T13:45:00.729Z,11.9
2022-08-25T13:50:00.576Z,14.8
2022-08-25T13:55:04.960Z,11.9
2022-08-25T14:00:01.188Z,10.1
2022-08-25T14:05:00.363Z,12.6
2022-08-25T14:10:00.917Z,6.1
2022-08-25T14:15:00.332Z,4.3
2022-08-25T14:20:00.400Z,8.3
2022-08-25T14:25:00.349Z,6.8
2022-08-25T14:30:00.688Z,12.2
2022-08-25T14:35:10.370Z,12.6
2022-08-25T14:40:00.800Z,8.3
2022-08-25T14:45:00.329Z,8.3
2022-08-25T14:50:00.473Z,5.4
2022-08-25T14:55:00.479Z,7.6
2022-08-25T15:00:00.393Z,15.5
2022-08-25T15:05:01.465Z,15.1
2022-08-25T15:10:00.358Z,11.9
2022-08-25T15:15:00.364Z,14.4
2022-08-25T15:20:00.374Z,15.8
2022-08-25T15:25:02.080Z,7.2
2022-08-25T15:30:00.371Z,9.4
2022-08-25T15:35:00.322Z,4.7
2022-08-25T15:40:00.530Z,7.9
2022-08-25T15:45:00.326Z,13.3
2022-08-25T15:50:00.418Z,14.4
2022-08-25T15:55:00.329Z,18.0
2022-08-25T16:00:00.391Z,6.5
2022-08-25T16:05:00.384Z,11.5
2022-08-25T16:10:00.381Z,15.5
2022-08-25T16:15:00.316Z,13.3
2022-08-25T16:20:00.376Z,7.9
2022-08-25T16:25:00.378Z,13.7
2022-08-25T16:30:00.393Z,12.2
2022-08-25T16:35:00.346Z,16.9
2022-08-25T16:40:00.685Z,13.3
2022-08-25T16:45:00.329Z,14.0
2022-08-25T16:50:00.480Z,6.5
2022-08-25T16:55:00.310Z,6.1
2022-08-25T17:00:00.698Z,7.9
2022-08-25T17:05:00.370Z,11.9
2022-08-25T17:10:00.686Z,10.4
2022-08-25T17:15:00.341Z,9.7
2022-08-25T17:20:05.162Z,7.6
2022-08-25T17:25:02.349Z,11.2
2022-08-25T17:30:00.602Z,8.6
2022-08-25T17:35:04.597Z,7.2
2022-08-25T17:40:03.847Z,6.8
2022-08-25T17:45:00.356Z,8.3
2022-08-25T17:50:00.737Z,5.8
2022-08-25T17:55:00.643Z,7.2
2022-08-25T18:00:01.316Z,4.7
2022-08-25T18:05:00.306Z,3.2
2022-08-25T18:10:00.379Z,3.6
2022-08-25T18:15:00.254Z,4.0
2022-08-25T18:20:00.345Z,0.0
2022-08-25T18:25:00.376Z,0.0
2022-08-25T18:30:03.411Z,2.2
2022-08-25T18:35:00.313Z,1.4
2022-08-25T18:40:00.645Z,1.4
2022-08-25T18:45:00.396Z,1.8
2022-08-25T18:50:04.949Z,1.4
2022-08-25T18:55:01.326Z,2.9
2022-08-25T19:00:00.440Z,4.0
2022-08-25T19:05:10.820Z,1.8
2022-08-25T19:10:01.078Z,1.4
2022-08-25T19:15:01.548Z,1.8
2022-08-25T19:20:04.379Z,1.4
2022-08-25T19:25:00.355Z,0.0
2022-08-25T19:30:00.347Z,0.0
2022-08-25T19:35:00.648Z,0.0
2022-08-25T19:40:00.651Z,0.0
2022-08-25T19:45:00.650Z,0.0
2022-08-25T19:50:00.434Z,0.0
2022-08-25T19:55:00.976Z,0.0
2022-08-25T20:00:00.459Z,0.0
2022-08-25T20:05:00.364Z,0.0
2022-08-25T20:10:00.377Z,0.0
2022-08-25T20:15:00.314Z,0.0
2022-08-25T20:20:00.500Z,0.0
2022-08-25T20:25:00.307Z,0.0
2022-08-25T20:30:03.458Z,0.0
2022-08-25T20:35:00.351Z,0.0
2022-08-25T20:40:00.790Z,0.0
2022-08-25T20:45:01.089Z,2.9
2022-08-25T20:50:07.179Z,4.7
2022-08-25T20:55:00.550Z,3.2
2022-08-25T21:00:01.267Z,2.2
2022-08-25T21:05:00.329Z,2.9
2022-08-25T21:10:01.759Z,1.4
2022-08-25T21:15:00.947Z,1.4
2022-08-25T21:20:01.169Z,4.7
2022-08-25T21:25:00.749Z,6.8
2022-08-25T21:30:00.460Z,3.6
2022-08-25T21:35:01.391Z,1.1
2022-08-25T21:40:00.634Z,3.6
2022-08-25T21:45:02.862Z,2.5
2022-08-25T21:50:00.378Z,5.0
2022-08-25T21:55:00.992Z,4.0
2022-08-25T22:00:01.149Z,3.6
2022-08-25T22:05:00.317Z,2.5
2022-08-25T22:10:00.369Z,2.9
2022-08-25T22:15:00.478Z,3.2
2022-08-25T22:20:00.373Z,4.0
2022-08-25T22:25:00.690Z,3.2
2022-08-25T22:30:00.423Z,4.3
2022-08-25T22:35:00.355Z,3.6
2022-08-25T22:40:01.934Z,3.2
2022-08-25T22:45:00.402Z,3.2
2022-08-25T22:50:01.805Z,2.2
2022-08-25T22:55:00.314Z,4.0
2022-08-25T23:00:00.431Z,5.4
2022-08-25T23:05:01.354Z,4.0
2022-08-25T23:10:00.871Z,2.2
2022-08-25T23:15:00.309Z,1.4
2022-08-25T23:20:00.833Z,2.9
2022-08-25T23:25:03.511Z,4.7
2022-08-25T23:30:00.417Z,2.2
2022-08-25T23:35:01.001Z,1.4
2022-08-25T23:40:00.609Z,2.2
2022-08-25T23:45:02.545Z,2.5
2022-08-25T23:50:00.375Z,3.2
2022-08-25T23:55:00.331Z,3.2
